sensor_id;sensor_type;location;lat;lon;timestamp;pressure;altitude;pressure_sealevel;temperature;humidity
45323;BME280;31382;50.200;8.674;2023-05-13T00:00:48;100536.28;;;14.14;71.35
45323;BME280;31382;50.200;8.674;2023-05-13T00:05:49;100535.31;;;14.22;71.06
45323;BME280;31382;50.200;8.674;2023-05-13T00:10:51;100541.22;;;14.32;71.09
45323;BME280;31382;50.200;8.674;2023-05-13T00:15:52;100544.78;;;14.39;71.20
45323;BME280;31382;50.200;8.674;2023-05-13T00:20:54;100533.72;;;14.34;71.62
45323;BME280;31382;50.200;8.674;2023-05-13T00:25:56;100525.06;;;14.17;72.05
45323;BME280;31382;50.200;8.674;2023-05-13T00:30:57;100525.47;;;14.14;72.71
45323;BME280;31382;50.200;8.674;2023-05-13T00:35:59;100516.59;;;13.99;73.18
45323;BME280;31382;50.200;8.674;2023-05-13T00:41:01;100522.78;;;13.93;73.32
45323;BME280;31382;50.200;8.674;2023-05-13T00:46:03;100528.81;;;14.16;72.79
45323;BME280;31382;50.200;8.674;2023-05-13T00:51:05;100535.34;;;14.28;72.57
45323;BME280;31382;50.200;8.674;2023-05-13T00:56:06;100536.47;;;14.41;72.41
45323;BME280;31382;50.200;8.674;2023-05-13T01:01:15;100531.78;;;14.50;72.39
45323;BME280;31382;50.200;8.674;2023-05-13T01:06:32;100528.28;;;14.56;72.23
45323;BME280;31382;50.200;8.674;2023-05-13T01:11:39;100528.84;;;14.51;72.59
45323;BME280;31382;50.200;8.674;2023-05-13T01:17:06;100529.28;;;14.55;72.57
45323;BME280;31382;50.200;8.674;2023-05-13T01:22:08;100538.00;;;14.50;72.68
45323;BME280;31382;50.200;8.674;2023-05-13T01:27:10;100535.53;;;14.55;72.63
45323;BME280;31382;50.200;8.674;2023-05-13T01:32:12;100534.16;;;14.59;72.27
45323;BME280;31382;50.200;8.674;2023-05-13T01:37:14;100536.00;;;14.59;72.36
45323;BME280;31382;50.200;8.674;2023-05-13T01:42:15;100536.47;;;14.62;72.23
45323;BME280;31382;50.200;8.674;2023-05-13T01:47:17;100530.22;;;14.62;72.16
45323;BME280;31382;50.200;8.674;2023-05-13T01:52:19;100527.84;;;14.52;72.37
45323;BME280;31382;50.200;8.674;2023-05-13T01:57:21;100538.47;;;14.54;72.43
45323;BME280;31382;50.200;8.674;2023-05-13T02:02:22;100531.19;;;14.54;72.26
45323;BME280;31382;50.200;8.674;2023-05-13T02:07:24;100532.19;;;14.53;72.25
45323;BME280;31382;50.200;8.674;2023-05-13T02:12:26;100534.72;;;14.55;72.23
45323;BME280;31382;50.200;8.674;2023-05-13T02:17:27;100540.44;;;14.38;72.47
45323;BME280;31382;50.200;8.674;2023-05-13T02:22:28;100541.84;;;14.34;72.56
45323;BME280;31382;50.200;8.674;2023-05-13T02:27:30;100540.38;;;14.32;72.34
45323;BME280;31382;50.200;8.674;2023-05-13T02:32:31;100529.94;;;14.28;72.62
45323;BME280;31382;50.200;8.674;2023-05-13T02:37:32;100524.78;;;14.34;72.14
45323;BME280;31382;50.200;8.674;2023-05-13T02:42:34;100524.97;;;14.32;71.81
45323;BME280;31382;50.200;8.674;2023-05-13T02:47:35;100525.38;;;14.29;71.78
45323;BME280;31382;50.200;8.674;2023-05-13T02:52:37;100533.88;;;14.26;71.76
45323;BME280;31382;50.200;8.674;2023-05-13T02:57:39;100528.03;;;14.22;71.74
45323;BME280;31382;50.200;8.674;2023-05-13T03:02:40;100521.72;;;14.15;71.95
45323;BME280;31382;50.200;8.674;2023-05-13T03:07:42;100524.56;;;14.07;71.67
45323;BME280;31382;50.200;8.674;2023-05-13T03:12:44;100528.63;;;13.96;71.92
45323;BME280;31382;50.200;8.674;2023-05-13T03:17:45;100527.28;;;13.85;72.08
45323;BME280;31382;50.200;8.674;2023-05-13T03:22:47;100536.88;;;13.66;72.53
45323;BME280;31382;50.200;8.674;2023-05-13T03:27:48;100545.94;;;13.59;72.66
45323;BME280;31382;50.200;8.674;2023-05-13T03:32:49;100542.50;;;13.50;72.71
45323;BME280;31382;50.200;8.674;2023-05-13T03:37:51;100546.44;;;13.33;73.06
45323;BME280;31382;50.200;8.674;2023-05-13T03:42:52;100550.81;;;13.34;72.51
45323;BME280;31382;50.200;8.674;2023-05-13T03:47:54;100550.34;;;13.30;72.73
45323;BME280;31382;50.200;8.674;2023-05-13T03:52:55;100549.69;;;13.28;72.75
45323;BME280;31382;50.200;8.674;2023-05-13T03:57:57;100543.34;;;13.21;72.76
45323;BME280;31382;50.200;8.674;2023-05-13T04:02:58;100552.75;;;13.25;73.12
45323;BME280;31382;50.200;8.674;2023-05-13T04:08:00;100557.69;;;13.36;72.46
45323;BME280;31382;50.200;8.674;2023-05-13T04:13:01;100551.53;;;13.42;72.27
45323;BME280;31382;50.200;8.674;2023-05-13T04:18:02;100552.66;;;13.48;72.46
45323;BME280;31382;50.200;8.674;2023-05-13T04:23:04;100559.34;;;13.52;72.43
45323;BME280;31382;50.200;8.674;2023-05-13T04:28:06;100558.31;;;13.53;72.17
45323;BME280;31382;50.200;8.674;2023-05-13T04:33:07;100557.09;;;13.56;72.52
45323;BME280;31382;50.200;8.674;2023-05-13T04:38:08;100559.22;;;13.60;72.35
45323;BME280;31382;50.200;8.674;2023-05-13T04:43:10;100561.81;;;13.68;72.13
45323;BME280;31382;50.200;8.674;2023-05-13T04:48:12;100573.16;;;13.79;72.04
45323;BME280;31382;50.200;8.674;2023-05-13T04:53:13;100570.50;;;13.85;71.81
45323;BME280;31382;50.200;8.674;2023-05-13T04:58:15;100571.97;;;13.88;71.98
45323;BME280;31382;50.200;8.674;2023-05-13T05:03:16;100573.31;;;13.92;71.72
45323;BME280;31382;50.200;8.674;2023-05-13T05:08:18;100576.09;;;14.05;71.59
45323;BME280;31382;50.200;8.674;2023-05-13T05:13:19;100572.91;;;14.17;71.39
45323;BME280;31382;50.200;8.674;2023-05-13T05:18:20;100588.59;;;14.28;71.27
45323;BME280;31382;50.200;8.674;2023-05-13T05:23:22;100589.56;;;14.42;71.44
45323;BME280;31382;50.200;8.674;2023-05-13T05:28:23;100596.81;;;14.63;71.08
45323;BME280;31382;50.200;8.674;2023-05-13T05:33:25;100601.09;;;14.79;70.91
45323;BME280;31382;50.200;8.674;2023-05-13T05:38:27;100605.13;;;14.90;70.88
45323;BME280;31382;50.200;8.674;2023-05-13T05:43:28;100600.22;;;15.06;70.74
45323;BME280;31382;50.200;8.674;2023-05-13T05:48:30;100603.00;;;15.20;70.36
45323;BME280;31382;50.200;8.674;2023-05-13T05:53:35;100607.03;;;15.31;70.44
45323;BME280;31382;50.200;8.674;2023-05-13T05:58:37;100610.66;;;15.44;70.11
45323;BME280;31382;50.200;8.674;2023-05-13T06:03:39;100614.84;;;15.54;70.14
45323;BME280;31382;50.200;8.674;2023-05-13T06:08:40;100619.97;;;15.77;69.79
45323;BME280;31382;50.200;8.674;2023-05-13T06:13:42;100616.28;;;15.98;69.51
45323;BME280;31382;50.200;8.674;2023-05-13T06:18:44;100624.88;;;16.21;69.27
45323;BME280;31382;50.200;8.674;2023-05-13T06:23:45;100623.84;;;16.42;68.91
45323;BME280;31382;50.200;8.674;2023-05-13T06:28:47;100618.22;;;16.71;68.64
45323;BME280;31382;50.200;8.674;2023-05-13T06:33:49;100621.13;;;16.96;68.00
45323;BME280;31382;50.200;8.674;2023-05-13T06:38:52;100624.28;;;16.99;67.86
45323;BME280;31382;50.200;8.674;2023-05-13T06:43:53;100619.22;;;17.10;67.16
45323;BME280;31382;50.200;8.674;2023-05-13T06:48:55;100619.66;;;17.07;66.80
45323;BME280;31382;50.200;8.674;2023-05-13T06:53:58;100618.59;;;17.08;66.37
45323;BME280;31382;50.200;8.674;2023-05-13T06:58:59;100623.00;;;17.09;66.36
45323;BME280;31382;50.200;8.674;2023-05-13T07:04:00;100614.41;;;17.18;65.75
45323;BME280;31382;50.200;8.674;2023-05-13T07:09:02;100620.88;;;17.17;65.42
45323;BME280;31382;50.200;8.674;2023-05-13T07:14:08;100614.81;;;17.29;65.56
45323;BME280;31382;50.200;8.674;2023-05-13T07:19:10;100621.66;;;17.44;64.74
45323;BME280;31382;50.200;8.674;2023-05-13T07:24:11;100625.75;;;17.60;64.30
45323;BME280;31382;50.200;8.674;2023-05-13T07:29:12;100612.69;;;17.89;63.34
45323;BME280;31382;50.200;8.674;2023-05-13T07:34:14;100612.19;;;18.06;62.80
45323;BME280;31382;50.200;8.674;2023-05-13T07:39:16;100603.81;;;18.32;61.53
45323;BME280;31382;50.200;8.674;2023-05-13T07:44:18;100607.53;;;18.38;60.98
45323;BME280;31382;50.200;8.674;2023-05-13T07:49:20;100604.72;;;18.51;60.66
45323;BME280;31382;50.200;8.674;2023-05-13T07:54:21;100609.28;;;18.57;60.18
45323;BME280;31382;50.200;8.674;2023-05-13T07:59:23;100609.16;;;18.71;60.12
45323;BME280;31382;50.200;8.674;2023-05-13T08:04:24;100616.78;;;18.87;60.28
45323;BME280;31382;50.200;8.674;2023-05-13T08:09:26;100622.56;;;18.97;59.71
45323;BME280;31382;50.200;8.674;2023-05-13T08:14:28;100619.16;;;19.02;59.79
45323;BME280;31382;50.200;8.674;2023-05-13T08:19:29;100611.75;;;19.09;59.77
45323;BME280;31382;50.200;8.674;2023-05-13T08:24:31;100620.78;;;19.28;59.41
45323;BME280;31382;50.200;8.674;2023-05-13T08:29:32;100610.63;;;19.54;58.86
45323;BME280;31382;50.200;8.674;2023-05-13T08:34:33;100613.16;;;19.86;58.21
45323;BME280;31382;50.200;8.674;2023-05-13T08:39:35;100605.47;;;20.25;56.70
45323;BME280;31382;50.200;8.674;2023-05-13T08:44:38;100595.75;;;20.40;55.21
45323;BME280;31382;50.200;8.674;2023-05-13T08:49:40;100603.25;;;20.57;53.66
45323;BME280;31382;50.200;8.674;2023-05-13T08:54:42;100596.28;;;20.85;52.82
45323;BME280;31382;50.200;8.674;2023-05-13T08:59:44;100593.31;;;21.10;51.89
45323;BME280;31382;50.200;8.674;2023-05-13T09:04:51;100599.19;;;21.30;50.65
45323;BME280;31382;50.200;8.674;2023-05-13T09:09:53;100593.97;;;21.41;50.26
45323;BME280;31382;50.200;8.674;2023-05-13T09:14:54;100597.53;;;21.41;49.98
45323;BME280;31382;50.200;8.674;2023-05-13T09:19:56;100593.69;;;21.42;48.98
45323;BME280;31382;50.200;8.674;2023-05-13T09:24:57;100593.03;;;21.47;48.98
45323;BME280;31382;50.200;8.674;2023-05-13T09:29:59;100600.78;;;21.14;48.83
45323;BME280;31382;50.200;8.674;2023-05-13T09:35:11;100598.50;;;21.35;48.68
45323;BME280;31382;50.200;8.674;2023-05-13T09:40:17;100596.06;;;21.62;48.42
45323;BME280;31382;50.200;8.674;2023-05-13T09:45:18;100586.91;;;21.85;47.48
45323;BME280;31382;50.200;8.674;2023-05-13T09:50:20;100586.84;;;21.80;47.56
45323;BME280;31382;50.200;8.674;2023-05-13T09:55:22;100588.97;;;22.07;47.29
45323;BME280;31382;50.200;8.674;2023-05-13T10:00:24;100587.94;;;22.25;46.90
45323;BME280;31382;50.200;8.674;2023-05-13T10:05:33;100592.59;;;22.24;46.86
45323;BME280;31382;50.200;8.674;2023-05-13T10:10:35;100589.75;;;22.53;46.69
45323;BME280;31382;50.200;8.674;2023-05-13T10:15:53;100580.44;;;22.71;46.12
45323;BME280;31382;50.200;8.674;2023-05-13T10:20:55;100571.88;;;22.84;46.34
45323;BME280;31382;50.200;8.674;2023-05-13T10:25:57;100558.22;;;23.06;45.53
45323;BME280;31382;50.200;8.674;2023-05-13T10:30:59;100568.69;;;23.31;44.63
45323;BME280;31382;50.200;8.674;2023-05-13T10:42:07;100546.13;;;23.73;43.61
45323;BME280;31382;50.200;8.674;2023-05-13T10:47:19;100547.97;;;23.90;43.21
45323;BME280;31382;50.200;8.674;2023-05-13T10:52:20;100538.53;;;24.08;42.51
45323;BME280;31382;50.200;8.674;2023-05-13T10:57:29;100526.22;;;24.15;41.83
45323;BME280;31382;50.200;8.674;2023-05-13T11:02:36;100529.53;;;24.18;42.41
45323;BME280;31382;50.200;8.674;2023-05-13T11:07:38;100518.56;;;24.23;41.26
45323;BME280;31382;50.200;8.674;2023-05-13T11:12:39;100528.50;;;24.29;41.01
45323;BME280;31382;50.200;8.674;2023-05-13T11:17:44;100520.00;;;24.30;41.20
45323;BME280;31382;50.200;8.674;2023-05-13T11:22:46;100524.78;;;24.08;41.78
45323;BME280;31382;50.200;8.674;2023-05-13T11:27:47;100528.63;;;23.52;44.24
45323;BME280;31382;50.200;8.674;2023-05-13T11:32:54;100525.59;;;22.88;45.23
45323;BME280;31382;50.200;8.674;2023-05-13T11:37:58;100524.13;;;22.24;48.07
45323;BME280;31382;50.200;8.674;2023-05-13T11:43:01;100519.03;;;22.50;46.16
45323;BME280;31382;50.200;8.674;2023-05-13T11:48:21;100520.31;;;22.81;44.62
45323;BME280;31382;50.200;8.674;2023-05-13T11:53:23;100519.56;;;23.30;44.75
45323;BME280;31382;50.200;8.674;2023-05-13T11:58:25;100516.69;;;23.69;43.55
45323;BME280;31382;50.200;8.674;2023-05-13T12:03:26;100514.41;;;23.83;43.79
45323;BME280;31382;50.200;8.674;2023-05-13T12:08:28;100522.25;;;24.01;43.81
45323;BME280;31382;50.200;8.674;2023-05-13T12:13:30;100514.19;;;24.22;42.59
45323;BME280;31382;50.200;8.674;2023-05-13T12:18:31;100517.44;;;24.19;42.11
45323;BME280;31382;50.200;8.674;2023-05-13T12:23:40;100515.84;;;24.60;41.60
45323;BME280;31382;50.200;8.674;2023-05-13T12:28:41;100552.00;;;25.37;39.90
45323;BME280;31382;50.200;8.674;2023-05-13T12:33:43;100556.63;;;24.73;40.20
45323;BME280;31382;50.200;8.674;2023-05-13T12:39:00;100562.84;;;24.26;40.96
45323;BME280;31382;50.200;8.674;2023-05-13T12:44:07;100577.53;;;23.83;41.42
45323;BME280;31382;50.200;8.674;2023-05-13T12:49:09;100572.91;;;23.00;43.03
45323;BME280;31382;50.200;8.674;2023-05-13T12:54:12;100563.97;;;22.32;40.42
45323;BME280;31382;50.200;8.674;2023-05-13T12:59:13;100552.69;;;21.83;39.01
45323;BME280;31382;50.200;8.674;2023-05-13T13:04:15;100560.69;;;21.72;39.21
45323;BME280;31382;50.200;8.674;2023-05-13T13:09:17;100541.97;;;21.52;40.23
45323;BME280;31382;50.200;8.674;2023-05-13T13:14:19;100546.84;;;21.38;41.29
45323;BME280;31382;50.200;8.674;2023-05-13T13:19:20;100552.44;;;21.55;41.68
45323;BME280;31382;50.200;8.674;2023-05-13T13:24:21;100552.84;;;21.64;42.29
45323;BME280;31382;50.200;8.674;2023-05-13T13:29:23;100550.34;;;21.91;42.49
45323;BME280;31382;50.200;8.674;2023-05-13T13:34:24;100547.19;;;22.28;42.47
45323;BME280;31382;50.200;8.674;2023-05-13T13:39:25;100536.09;;;22.74;41.71
45323;BME280;31382;50.200;8.674;2023-05-13T13:44:27;100547.13;;;23.18;41.06
45323;BME280;31382;50.200;8.674;2023-05-13T13:49:28;100538.31;;;23.60;40.43
45323;BME280;31382;50.200;8.674;2023-05-13T13:54:30;100534.75;;;23.87;39.28
45323;BME280;31382;50.200;8.674;2023-05-13T13:59:31;100528.63;;;24.07;38.70
45323;BME280;31382;50.200;8.674;2023-05-13T14:04:33;100518.31;;;24.19;38.08
45323;BME280;31382;50.200;8.674;2023-05-13T14:09:37;100513.09;;;24.55;37.64
45323;BME280;31382;50.200;8.674;2023-05-13T14:14:38;100505.84;;;25.80;36.74
45323;BME280;31382;50.200;8.674;2023-05-13T14:19:40;100506.41;;;26.44;35.96
45323;BME280;31382;50.200;8.674;2023-05-13T14:24:41;100511.94;;;26.44;35.09
45323;BME280;31382;50.200;8.674;2023-05-13T14:29:45;100503.44;;;26.25;35.59
45323;BME280;31382;50.200;8.674;2023-05-13T14:34:46;100502.28;;;26.67;34.99
45323;BME280;31382;50.200;8.674;2023-05-13T14:39:48;100502.22;;;27.92;34.14
45323;BME280;31382;50.200;8.674;2023-05-13T14:44:50;100506.97;;;28.79;32.05
45323;BME280;31382;50.200;8.674;2023-05-13T14:49:51;100503.25;;;29.32;30.32
45323;BME280;31382;50.200;8.674;2023-05-13T14:54:53;100494.81;;;29.42;29.25
45323;BME280;31382;50.200;8.674;2023-05-13T14:59:54;100495.63;;;29.43;29.00
45323;BME280;31382;50.200;8.674;2023-05-13T15:04:57;100493.00;;;29.71;28.63
45323;BME280;31382;50.200;8.674;2023-05-13T15:09:59;100487.38;;;29.95;27.67
45323;BME280;31382;50.200;8.674;2023-05-13T15:15:01;100485.81;;;30.21;27.02
45323;BME280;31382;50.200;8.674;2023-05-13T15:20:02;100478.25;;;29.94;26.22
45323;BME280;31382;50.200;8.674;2023-05-13T15:25:04;100471.94;;;29.70;26.89
45323;BME280;31382;50.200;8.674;2023-05-13T15:30:06;100474.06;;;29.59;28.18
45323;BME280;31382;50.200;8.674;2023-05-13T15:35:08;100475.72;;;29.79;27.79
45323;BME280;31382;50.200;8.674;2023-05-13T15:40:10;100466.66;;;29.73;27.66
45323;BME280;31382;50.200;8.674;2023-05-13T15:45:11;100472.94;;;29.79;27.90
45323;BME280;31382;50.200;8.674;2023-05-13T15:50:13;100470.75;;;29.95;28.74
45323;BME280;31382;50.200;8.674;2023-05-13T15:55:14;100471.22;;;29.83;28.63
45323;BME280;31382;50.200;8.674;2023-05-13T16:00:16;100464.25;;;29.66;28.77
45323;BME280;31382;50.200;8.674;2023-05-13T16:05:18;100464.97;;;29.91;27.79
45323;BME280;31382;50.200;8.674;2023-05-13T16:10:19;100467.97;;;29.95;27.65
45323;BME280;31382;50.200;8.674;2023-05-13T16:15:21;100462.97;;;30.11;27.45
45323;BME280;31382;50.200;8.674;2023-05-13T16:20:22;100460.47;;;29.95;27.22
45323;BME280;31382;50.200;8.674;2023-05-13T16:25:24;100466.78;;;30.15;27.83
45323;BME280;31382;50.200;8.674;2023-05-13T16:30:27;100458.03;;;30.40;27.35
45323;BME280;31382;50.200;8.674;2023-05-13T16:35:28;100459.19;;;30.53;27.00
45323;BME280;31382;50.200;8.674;2023-05-13T16:40:30;100445.63;;;30.66;26.40
45323;BME280;31382;50.200;8.674;2023-05-13T16:45:31;100455.38;;;30.49;26.62
45323;BME280;31382;50.200;8.674;2023-05-13T16:50:32;100449.34;;;30.14;27.32
45323;BME280;31382;50.200;8.674;2023-05-13T16:55:34;100450.25;;;29.77;27.50
45323;BME280;31382;50.200;8.674;2023-05-13T17:00:35;100450.34;;;29.72;27.23
45323;BME280;31382;50.200;8.674;2023-05-13T17:05:37;100438.69;;;29.70;26.64
45323;BME280;31382;50.200;8.674;2023-05-13T17:10:38;100434.78;;;29.90;26.83
45323;BME280;31382;50.200;8.674;2023-05-13T17:15:40;100438.69;;;29.89;25.88
45323;BME280;31382;50.200;8.674;2023-05-13T17:20:41;100436.97;;;29.93;26.38
45323;BME280;31382;50.200;8.674;2023-05-13T17:25:44;100432.97;;;29.99;26.55
45323;BME280;31382;50.200;8.674;2023-05-13T17:30:46;100431.69;;;29.77;26.09
45323;BME280;31382;50.200;8.674;2023-05-13T17:35:47;100434.06;;;29.65;26.60
45323;BME280;31382;50.200;8.674;2023-05-13T17:40:49;100426.97;;;29.40;26.61
45323;BME280;31382;50.200;8.674;2023-05-13T17:45:50;100425.28;;;29.25;26.39
45323;BME280;31382;50.200;8.674;2023-05-13T17:50:52;100431.63;;;28.82;26.97
45323;BME280;31382;50.200;8.674;2023-05-13T17:55:53;100447.16;;;28.01;27.54
45323;BME280;31382;50.200;8.674;2023-05-13T18:00:55;100441.16;;;27.09;29.49
45323;BME280;31382;50.200;8.674;2023-05-13T18:05:56;100445.75;;;26.49;30.30
45323;BME280;31382;50.200;8.674;2023-05-13T18:10:58;100444.44;;;25.75;31.66
45323;BME280;31382;50.200;8.674;2023-05-13T18:15:59;100450.16;;;25.27;32.09
45323;BME280;31382;50.200;8.674;2023-05-13T18:21:00;100445.28;;;24.71;33.51
45323;BME280;31382;50.200;8.674;2023-05-13T18:26:02;100461.63;;;24.13;34.38
45323;BME280;31382;50.200;8.674;2023-05-13T18:31:03;100462.66;;;23.42;35.97
45323;BME280;31382;50.200;8.674;2023-05-13T18:36:05;100465.66;;;22.96;36.65
45323;BME280;31382;50.200;8.674;2023-05-13T18:41:08;100473.06;;;22.18;37.86
45323;BME280;31382;50.200;8.674;2023-05-13T18:46:09;100486.53;;;21.74;39.62
45323;BME280;31382;50.200;8.674;2023-05-13T18:51:11;100484.50;;;21.24;41.29
45323;BME280;31382;50.200;8.674;2023-05-13T18:56:14;100484.22;;;20.96;41.86
45323;BME280;31382;50.200;8.674;2023-05-13T19:01:16;100489.34;;;20.57;42.79
45323;BME280;31382;50.200;8.674;2023-05-13T19:06:17;100495.09;;;20.32;43.50
45323;BME280;31382;50.200;8.674;2023-05-13T19:11:19;100501.78;;;19.94;44.45
45323;BME280;31382;50.200;8.674;2023-05-13T19:16:21;100507.31;;;19.76;45.15
45323;BME280;31382;50.200;8.674;2023-05-13T19:21:23;100499.66;;;19.66;45.45
45323;BME280;31382;50.200;8.674;2023-05-13T19:26:24;100509.00;;;19.58;45.77
45323;BME280;31382;50.200;8.674;2023-05-13T19:31:26;100510.16;;;19.51;46.20
45323;BME280;31382;50.200;8.674;2023-05-13T19:36:27;100508.09;;;19.34;46.49
45323;BME280;31382;50.200;8.674;2023-05-13T19:41:29;100514.78;;;19.20;47.46
45323;BME280;31382;50.200;8.674;2023-05-13T19:46:30;100525.41;;;19.10;48.11
45323;BME280;31382;50.200;8.674;2023-05-13T19:51:32;100531.00;;;18.96;48.67
45323;BME280;31382;50.200;8.674;2023-05-13T19:56:33;100517.97;;;18.80;49.40
45323;BME280;31382;50.200;8.674;2023-05-13T20:01:34;100527.91;;;18.68;49.83
45323;BME280;31382;50.200;8.674;2023-05-13T20:06:37;100523.88;;;18.52;50.27
45323;BME280;31382;50.200;8.674;2023-05-13T20:11:39;100524.84;;;18.39;50.51
45323;BME280;31382;50.200;8.674;2023-05-13T20:16:40;100521.69;;;18.17;51.38
45323;BME280;31382;50.200;8.674;2023-05-13T20:21:43;100533.91;;;18.08;51.55
45323;BME280;31382;50.200;8.674;2023-05-13T20:26:44;100530.22;;;17.95;51.93
45323;BME280;31382;50.200;8.674;2023-05-13T20:31:46;100528.59;;;17.88;52.21
45323;BME280;31382;50.200;8.674;2023-05-13T20:36:47;100536.19;;;17.72;52.70
45323;BME280;31382;50.200;8.674;2023-05-13T20:41:49;100531.03;;;17.64;52.94
45323;BME280;31382;50.200;8.674;2023-05-13T20:46:50;100534.00;;;17.56;53.38
45323;BME280;31382;50.200;8.674;2023-05-13T20:51:52;100528.41;;;17.44;53.61
45323;BME280;31382;50.200;8.674;2023-05-13T20:56:54;100529.13;;;17.26;54.05
45323;BME280;31382;50.200;8.674;2023-05-13T21:01:55;100524.16;;;17.16;54.25
45323;BME280;31382;50.200;8.674;2023-05-13T21:06:57;100531.09;;;16.99;54.43
45323;BME280;31382;50.200;8.674;2023-05-13T21:11:58;100526.97;;;16.83;55.11
45323;BME280;31382;50.200;8.674;2023-05-13T21:17:00;100525.06;;;16.70;55.14
45323;BME280;31382;50.200;8.674;2023-05-13T21:22:03;100531.16;;;16.59;55.54
45323;BME280;31382;50.200;8.674;2023-05-13T21:27:06;100531.38;;;16.31;56.05
45323;BME280;31382;50.200;8.674;2023-05-13T21:32:07;100524.50;;;16.35;56.32
45323;BME280;31382;50.200;8.674;2023-05-13T21:37:08;100531.16;;;16.39;56.39
45323;BME280;31382;50.200;8.674;2023-05-13T21:42:10;100521.16;;;16.26;56.89
45323;BME280;31382;50.200;8.674;2023-05-13T21:47:11;100520.75;;;16.16;57.42
45323;BME280;31382;50.200;8.674;2023-05-13T21:52:12;100517.81;;;16.11;57.81
45323;BME280;31382;50.200;8.674;2023-05-13T21:57:14;100523.25;;;16.04;58.04
45323;BME280;31382;50.200;8.674;2023-05-13T22:02:15;100529.69;;;15.83;58.37
45323;BME280;31382;50.200;8.674;2023-05-13T22:07:17;100528.59;;;15.71;58.49
45323;BME280;31382;50.200;8.674;2023-05-13T22:12:18;100525.66;;;15.52;58.66
45323;BME280;31382;50.200;8.674;2023-05-13T22:17:21;100520.00;;;15.47;58.97
45323;BME280;31382;50.200;8.674;2023-05-13T22:22:23;100527.28;;;15.46;59.04
45323;BME280;31382;50.200;8.674;2023-05-13T22:27:24;100523.53;;;15.41;59.13
45323;BME280;31382;50.200;8.674;2023-05-13T22:32:25;100523.28;;;15.36;59.15
45323;BME280;31382;50.200;8.674;2023-05-13T22:37:27;100517.41;;;15.25;59.22
45323;BME280;31382;50.200;8.674;2023-05-13T22:42:28;100514.28;;;15.22;59.05
45323;BME280;31382;50.200;8.674;2023-05-13T22:47:30;100514.81;;;14.97;59.62
45323;BME280;31382;50.200;8.674;2023-05-13T22:52:31;100522.97;;;14.69;60.57
45323;BME280;31382;50.200;8.674;2023-05-13T22:57:32;100524.47;;;14.78;60.39
45323;BME280;31382;50.200;8.674;2023-05-13T23:02:34;100512.28;;;14.89;60.20
45323;BME280;31382;50.200;8.674;2023-05-13T23:07:35;100514.56;;;14.92;60.37
45323;BME280;31382;50.200;8.674;2023-05-13T23:12:37;100508.72;;;14.88;60.05
45323;BME280;31382;50.200;8.674;2023-05-13T23:17:39;100512.41;;;14.81;60.48
45323;BME280;31382;50.200;8.674;2023-05-13T23:22:40;100505.53;;;14.78;60.42
45323;BME280;31382;50.200;8.674;2023-05-13T23:27:42;100499.31;;;14.50;60.99
45323;BME280;31382;50.200;8.674;2023-05-13T23:32:43;100507.03;;;14.53;61.26
45323;BME280;31382;50.200;8.674;2023-05-13T23:37:45;100511.97;;;14.49;61.17
45323;BME280;31382;50.200;8.674;2023-05-13T23:42:46;100497.78;;;14.40;61.16
45323;BME280;31382;50.200;8.674;2023-05-13T23:47:48;100504.44;;;14.38;61.30
45323;BME280;31382;50.200;8.674;2023-05-13T23:52:50;100508.34;;;14.35;61.35
45323;BME280;31382;50.200;8.674;2023-05-13T23:57:51;100493.69;;;14.23;61.78
